TimeCST,TemperatureF,Dew PointF,Humidity,Sea Level PressureIn,VisibilityMPH,Wind Direction,Wind SpeedMPH,Gust SpeedMPH,PrecipitationIn,Events,Conditions,WindDirDegrees,DateUTC
12:12 AM,24.8,21.2,86,29.81,1.2,ESE,19.6,27.6,N/A,Snow,Light Snow,110,2013-03-04 06:12:00
12:32 AM,24.8,21.2,86,29.80,1.5,ESE,18.4,23.0,N/A,Snow,Light Snow,110,2013-03-04 06:32:00
12:53 AM,24.8,21.2,86,29.79,4.0,ESE,18.4,24.2,0.01,Snow,Light Snow,110,2013-03-04 06:53:00
1:12 AM,24.8,23.0,93,29.78,5.0,ESE,20.7,27.6,N/A,,Overcast,110,2013-03-04 07:12:00
2:12 AM,24.8,23.0,93,29.79,2.5,ESE,18.4,23.0,0.01,Snow,Light Snow,120,2013-03-04 08:12:00
2:32 AM,24.8,23.0,93,29.78,2.0,ESE,17.3,24.2,0.01,Snow,Light Snow,120,2013-03-04 08:32:00
2:53 AM,24.8,23.0,93,29.78,1.8,ESE,13.8,23.0,0.01,Snow,Light Snow,110,2013-03-04 08:53:00
3:32 AM,24.8,23.0,93,29.76,10.0,ESE,17.3,24.2,N/A,,Overcast,110,2013-03-04 09:32:00
3:53 AM,24.8,23.0,93,29.75,10.0,ESE,19.6,23.0,N/A,,Overcast,110,2013-03-04 09:53:00
4:12 AM,24.8,21.2,86,29.75,10.0,ESE,20.7,25.3,N/A,,Overcast,110,2013-03-04 10:12:00
4:32 AM,24.8,23.0,93,29.77,10.0,ESE,16.1,21.9,N/A,,Overcast,120,2013-03-04 10:32:00
5:12 AM,24.8,23.0,93,29.78,10.0,ESE,16.1,20.7,N/A,,Overcast,120,2013-03-04 11:12:00
5:32 AM,24.8,23.0,93,29.78,7.0,ESE,16.1,20.7,N/A,,Overcast,120,2013-03-04 11:32:00
5:53 AM,24.8,24.8,100,29.79,7.0,SE,15.0,-,N/A,,Overcast,130,2013-03-04 11:53:00
6:12 AM,24.8,24.8,100,29.79,7.0,SE,15.0,20.7,N/A,,Overcast,130,2013-03-04 12:12:00
6:32 AM,24.8,24.8,100,29.80,7.0,SE,11.5,18.4,N/A,,Overcast,130,2013-03-04 12:32:00
6:53 AM,26.6,24.8,93,29.80,7.0,ESE,11.5,20.7,N/A,,Overcast,120,2013-03-04 12:53:00
7:12 AM,24.8,24.8,100,29.80,7.0,ESE,9.2,17.3,N/A,,Overcast,110,2013-03-04 13:12:00
7:33 AM,24.8,23.0,93,29.79,5.0,ESE,15.0,-,N/A,,Overcast,120,2013-03-04 13:33:00
7:53 AM,24.8,23.0,93,29.80,4.0,ESE,17.3,24.2,N/A,,Overcast,120,2013-03-04 13:53:00
8:12 AM,24.8,23.0,93,29.80,4.0,ESE,12.7,18.4,N/A,,Overcast,120,2013-03-04 14:12:00
8:33 AM,24.8,24.8,100,29.80,3.0,ESE,17.3,-,N/A,,Overcast,120,2013-03-04 14:33:00
8:53 AM,26.6,24.8,93,29.81,2.5,ESE,13.8,-,N/A,,Overcast,120,2013-03-04 14:53:00
9:12 AM,26.6,24.8,93,29.81,2.0,ESE,13.8,-,N/A,,Overcast,120,2013-03-04 15:12:00
9:33 AM,26.6,24.8,93,29.81,1.5,ESE,15.0,18.4,N/A,,Overcast,120,2013-03-04 15:33:00
9:53 AM,26.6,24.8,93,29.81,1.5,ESE,13.8,-,N/A,,Overcast,120,2013-03-04 15:53:00
10:12 AM,26.6,24.8,93,29.81,2.0,ESE,12.7,-,N/A,,Overcast,120,2013-03-04 16:12:00
10:33 AM,26.6,24.8,93,29.82,2.0,ESE,10.4,-,N/A,,Overcast,120,2013-03-04 16:33:00
10:53 AM,26.6,24.8,93,29.82,2.0,SE,13.8,18.4,N/A,,Overcast,130,2013-03-04 16:53:00
11:12 AM,26.6,24.8,93,29.82,1.5,SE,11.5,-,N/A,,Overcast,130,2013-03-04 17:12:00
11:33 AM,26.6,24.8,93,29.83,2.0,SE,12.7,-,N/A,,Overcast,130,2013-03-04 17:33:00
11:53 AM,26.6,26.6,100,29.83,2.0,ESE,13.8,-,N/A,,Overcast,120,2013-03-04 17:53:00
12:12 PM,26.6,26.6,100,29.83,2.0,ESE,11.5,17.3,N/A,,Overcast,120,2013-03-04 18:12:00
12:33 PM,26.6,26.6,100,29.84,2.0,SE,10.4,16.1,N/A,,Overcast,130,2013-03-04 18:33:00
12:52 PM,26.6,26.6,100,29.83,2.0,ESE,11.5,-,N/A,,Overcast,120,2013-03-04 18:52:00
1:12 PM,28.4,26.6,93,29.84,1.8,SE,9.2,-,N/A,,Overcast,140,2013-03-04 19:12:00
1:33 PM,28.4,26.6,93,29.82,1.8,SE,11.5,-,N/A,,Overcast,130,2013-03-04 19:33:00
1:52 PM,28.4,26.6,93,29.84,1.2,SSE,10.4,-,N/A,,Overcast,150,2013-03-04 19:52:00
2:12 PM,28.4,26.6,93,29.84,1.2,SE,10.4,-,N/A,,Overcast,140,2013-03-04 20:12:00
2:33 PM,26.6,26.6,100,29.83,1.2,SE,9.2,-,N/A,,Overcast,130,2013-03-04 20:33:00
2:52 PM,26.6,26.6,100,29.84,1.0,SE,9.2,-,N/A,,Overcast,130,2013-03-04 20:52:00
3:12 PM,28.4,26.6,93,29.84,1.2,SE,6.9,-,N/A,,Overcast,140,2013-03-04 21:12:00
3:33 PM,28.4,26.6,93,29.85,1.8,SE,5.8,-,N/A,,Overcast,130,2013-03-04 21:33:00
3:52 PM,28.4,26.6,93,29.85,2.5,ESE,9.2,-,N/A,,Overcast,120,2013-03-04 21:52:00
4:12 PM,28.4,26.6,93,29.85,1.5,ESE,9.2,-,N/A,Snow,Light Snow,120,2013-03-04 22:12:00
4:33 PM,28.4,26.6,93,29.85,1.0,SE,5.8,-,N/A,Snow,Light Snow,130,2013-03-04 22:33:00
4:52 PM,28.4,26.6,93,29.84,1.8,ESE,10.4,-,N/A,Snow,Light Snow,120,2013-03-04 22:52:00
5:12 PM,28.4,26.6,93,29.86,1.2,SE,8.1,-,N/A,,Overcast,130,2013-03-04 23:12:00
5:33 PM,28.4,26.6,93,29.87,1.2,SE,6.9,-,N/A,,Overcast,130,2013-03-04 23:33:00
5:52 PM,28.4,26.6,93,29.88,1.0,SE,6.9,-,N/A,Snow,Light Snow,130,2013-03-04 23:52:00
6:12 PM,28.4,26.6,93,29.90,2.5,SE,4.6,-,N/A,,Overcast,140,2013-03-05 00:12:00
6:32 PM,28.4,26.6,93,29.91,2.0,South,6.9,-,N/A,,Overcast,170,2013-03-05 00:32:00
6:52 PM,28.4,26.6,93,29.93,1.8,South,4.6,-,N/A,,Overcast,170,2013-03-05 00:52:00
7:13 PM,28.4,26.6,93,29.93,1.5,SSE,3.5,-,N/A,,Overcast,150,2013-03-05 01:13:00
7:32 PM,28.4,28.4,100,29.93,1.5,SSE,4.6,-,N/A,,Overcast,150,2013-03-05 01:32:00
7:52 PM,28.4,28.4,100,29.94,2.0,South,3.5,-,N/A,,Overcast,170,2013-03-05 01:52:00
8:12 PM,28.4,26.6,93,29.93,2.0,SSE,4.6,-,N/A,,Overcast,150,2013-03-05 02:12:00
8:32 PM,28.4,28.4,100,29.94,2.0,South,5.8,-,N/A,,Overcast,170,2013-03-05 02:32:00
8:53 PM,28.4,28.4,100,29.95,2.5,South,4.6,-,N/A,,Overcast,190,2013-03-05 02:53:00
9:12 PM,28.4,28.4,100,29.94,3.0,South,4.6,-,N/A,,Overcast,180,2013-03-05 03:12:00
9:32 PM,28.4,28.4,100,29.94,2.5,South,3.5,-,N/A,,Overcast,190,2013-03-05 03:32:00
9:53 PM,28.4,28.4,100,29.93,2.5,Calm,Calm,-,N/A,,Overcast,0,2013-03-05 03:53:00
10:12 PM,28.4,28.4,100,29.94,2.5,South,4.6,-,N/A,,Overcast,190,2013-03-05 04:12:00
10:53 PM,28.4,28.4,100,29.92,2.0,SSW,5.8,-,N/A,,Overcast,210,2013-03-05 04:53:00
11:12 PM,28.4,26.6,93,29.92,2.0,SW,4.6,-,N/A,,Overcast,220,2013-03-05 05:12:00
11:32 PM,28.4,28.4,100,29.91,2.5,SW,5.8,-,N/A,,Overcast,230,2013-03-05 05:32:00
11:53 PM,28.4,28.4,100,29.91,2.5,SSW,3.5,-,N/A,,Overcast,200,2013-03-05 05:53:00